NOZ7JP LIRP-ENGM
Flight info
| Callsign | NOZ7JP |
|---|---|
| Flight time | N/A |
| Altitude | 18000 |
| Route | BEROK L153 OSBUL/N0440F340 DCT ABREG/N0445F360 DCT LOKTA/N0442F350 DCT TEDGO DCT HAREM DCT LOHRE DCT ELNAT/N0443F360 DCT TOLGI DCT KEGAB DCT DOSUR DCT AMSEV/N0439F370 DCT PIPEX M609 RIPAM |
| Aircraft | B738/M-SDE2E3FGHIRWXY/LB1 |
Departure
| Time | N/A |
|---|---|
| Airport | Pisa International Airport (LIRP) |
Arrival
| Time | 2026-05-07 21:57 |
|---|---|
| Airport | Oslo-Gardermoen International Airport (ENGM) |
| Time | Latitude | Longitude | Altitude | Speed | Heading |
|---|---|---|---|---|---|
| 2026-05-07 21:42 | 59.88628 | 10.39128 | 14901 ft | 312 kts | 27° |
| 2026-05-07 21:42 | 59.90493 | 10.41314 | 14587 ft | 310 kts | 27° |
| 2026-05-07 21:42 | 59.92348 | 10.43489 | 14274 ft | 309 kts | 27° |
| 2026-05-07 21:43 | 59.94195 | 10.45659 | 13958 ft | 308 kts | 27° |
| 2026-05-07 21:43 | 59.96042 | 10.47831 | 13606 ft | 307 kts | 27° |
| 2026-05-07 21:43 | 59.97880 | 10.49995 | 13278 ft | 306 kts | 27° |
| 2026-05-07 21:43 | 59.99706 | 10.52148 | 12948 ft | 304 kts | 28° |
| 2026-05-07 21:44 | 60.01523 | 10.54295 | 12630 ft | 303 kts | 28° |
| 2026-05-07 21:44 | 60.03330 | 10.56430 | 12315 ft | 301 kts | 28° |
| 2026-05-07 21:44 | 60.05124 | 10.58555 | 11999 ft | 299 kts | 28° |
| 2026-05-07 21:44 | 60.06909 | 10.60670 | 11703 ft | 298 kts | 28° |
| 2026-05-07 21:45 | 60.08679 | 10.62771 | 11398 ft | 296 kts | 28° |
| 2026-05-07 21:45 | 60.10454 | 10.64880 | 11087 ft | 295 kts | 29° |
| 2026-05-07 21:45 | 60.12218 | 10.66979 | 10783 ft | 294 kts | 29° |
| 2026-05-07 21:45 | 60.13970 | 10.69067 | 10479 ft | 292 kts | 29° |
| 2026-05-07 21:46 | 60.15539 | 10.70938 | 10279 ft | 288 kts | 29° |
| 2026-05-07 21:46 | 60.17239 | 10.72969 | 10155 ft | 281 kts | 29° |
| 2026-05-07 21:46 | 60.18917 | 10.74976 | 9871 ft | 280 kts | 29° |
| 2026-05-07 21:46 | 60.20598 | 10.76988 | 9584 ft | 284 kts | 30° |
| 2026-05-07 21:47 | 60.22305 | 10.79032 | 9304 ft | 289 kts | 30° |
| 2026-05-07 21:47 | 60.24044 | 10.81118 | 9003 ft | 292 kts | 30° |
| 2026-05-07 21:47 | 60.25783 | 10.83208 | 8679 ft | 291 kts | 30° |
| 2026-05-07 21:47 | 60.27527 | 10.85306 | 8308 ft | 291 kts | 30° |
| 2026-05-07 21:48 | 60.29259 | 10.87393 | 7943 ft | 291 kts | 30° |
| 2026-05-07 21:48 | 60.30989 | 10.89480 | 7628 ft | 289 kts | 31° |
| 2026-05-07 21:48 | 60.32707 | 10.91555 | 7340 ft | 286 kts | 31° |
| 2026-05-07 21:48 | 60.34403 | 10.93607 | 7089 ft | 282 kts | 31° |
| 2026-05-07 21:49 | 60.36055 | 10.95605 | 6821 ft | 277 kts | 31° |
| 2026-05-07 21:49 | 60.37679 | 10.97573 | 6582 ft | 268 kts | 31° |
| 2026-05-07 21:49 | 60.39254 | 10.99483 | 6335 ft | 261 kts | 31° |
| 2026-05-07 21:49 | 60.40805 | 11.01367 | 6113 ft | 257 kts | 31° |
| 2026-05-07 21:50 | 60.42313 | 11.03201 | 6013 ft | 249 kts | 31° |
| 2026-05-07 21:50 | 60.43757 | 11.05019 | 5914 ft | 240 kts | 39° |
| 2026-05-07 21:50 | 60.44717 | 11.07649 | 5863 ft | 224 kts | 72° |
| 2026-05-07 21:50 | 60.44873 | 11.10669 | 5662 ft | 213 kts | 99° |
| 2026-05-07 21:51 | 60.44429 | 11.13434 | 5461 ft | 202 kts | 121° |
| 2026-05-07 21:51 | 60.43608 | 11.15673 | 5242 ft | 195 kts | 131° |
| 2026-05-07 21:51 | 60.42747 | 11.17701 | 5040 ft | 190 kts | 132° |
| 2026-05-07 21:51 | 60.41895 | 11.19693 | 4837 ft | 184 kts | 132° |
| 2026-05-07 21:52 | 60.41068 | 11.21629 | 4644 ft | 181 kts | 133° |
| 2026-05-07 21:52 | 60.40040 | 11.23018 | 4436 ft | 179 kts | 167° |
| 2026-05-07 21:52 | 60.38810 | 11.23096 | 4265 ft | 182 kts | 193° |
| 2026-05-07 21:52 | 60.37583 | 11.22373 | 4087 ft | 186 kts | 195° |
| 2026-05-07 21:53 | 60.36329 | 11.21649 | 3865 ft | 187 kts | 195° |
| 2026-05-07 21:53 | 60.35153 | 11.20970 | 3655 ft | 184 kts | 195° |
| 2026-05-07 21:53 | 60.33932 | 11.20264 | 3534 ft | 181 kts | 195° |
| 2026-05-07 21:53 | 60.32708 | 11.19523 | 3306 ft | 186 kts | 195° |
| 2026-05-07 21:54 | 60.31497 | 11.18803 | 3077 ft | 176 kts | 195° |
| 2026-05-07 21:54 | 60.30364 | 11.18146 | 2833 ft | 164 kts | 195° |
| 2026-05-07 21:54 | 60.29289 | 11.17527 | 2628 ft | 157 kts | 195° |
| 2026-05-07 21:54 | 60.28239 | 11.16923 | 2409 ft | 159 kts | 195° |
| 2026-05-07 21:55 | 60.27175 | 11.16311 | 2195 ft | 160 kts | 195° |
| 2026-05-07 21:55 | 60.26101 | 11.15692 | 1971 ft | 160 kts | 195° |
| 2026-05-07 21:55 | 60.25071 | 11.15098 | 1739 ft | 153 kts | 195° |
| 2026-05-07 21:55 | 60.24065 | 11.14518 | 1525 ft | 149 kts | 195° |
| 2026-05-07 21:56 | 60.23065 | 11.13942 | 1329 ft | 151 kts | 195° |
| 2026-05-07 21:56 | 60.22052 | 11.13358 | 1123 ft | 152 kts | 196° |
| 2026-05-07 21:56 | 60.21034 | 11.12774 | 908 ft | 152 kts | 196° |
| 2026-05-07 21:56 | 60.20022 | 11.12191 | 722 ft | 150 kts | 196° |
| 2026-05-07 21:57 | 60.19088 | 11.11649 | 683 ft | 118 kts | 195° |
| 2026-05-07 21:57 | 60.18504 | 11.11315 | 682 ft | 57 kts | 196° |
| 2026-05-07 21:57 | 60.18279 | 11.11184 | 681 ft | 26 kts | 196° |
| 2026-05-07 21:57 | 60.18119 | 11.11051 | 681 ft | 24 kts | 210° |
| 2026-05-07 21:58 | 60.18041 | 11.10795 | 679 ft | 23 kts | 282° |
| 2026-05-07 21:58 | 60.18105 | 11.10531 | 678 ft | 19 kts | 351° |
| 2026-05-07 21:58 | 60.18229 | 11.10593 | 679 ft | 21 kts | 16° |
| 2026-05-07 21:58 | 60.18389 | 11.10685 | 680 ft | 24 kts | 16° |
| 2026-05-07 21:59 | 60.18543 | 11.10775 | 681 ft | 23 kts | 15° |
| 2026-05-07 21:59 | 60.18694 | 11.10861 | 682 ft | 22 kts | 16° |
| 2026-05-07 21:59 | 60.18836 | 11.10944 | 679 ft | 21 kts | 16° |
| 2026-05-07 21:59 | 60.18976 | 11.11024 | 682 ft | 21 kts | 15° |
| 2026-05-07 22:00 | 60.19115 | 11.11105 | 683 ft | 20 kts | 16° |
| 2026-05-07 22:00 | 60.19248 | 11.11182 | 684 ft | 20 kts | 16° |
| 2026-05-07 22:00 | 60.19376 | 11.11255 | 683 ft | 19 kts | 15° |
| 2026-05-07 22:00 | 60.19488 | 11.11253 | 679 ft | 16 kts | 302° |
| 2026-05-07 22:01 | 60.19521 | 11.11043 | 681 ft | 16 kts | 286° |
| 2026-05-07 22:01 | 60.19551 | 11.10830 | 679 ft | 15 kts | 286° |
| 2026-05-07 22:01 | 60.19580 | 11.10628 | 680 ft | 15 kts | 286° |
| 2026-05-07 22:01 | 60.19606 | 11.10442 | 683 ft | 12 kts | 285° |
| 2026-05-07 22:02 | 60.19629 | 11.10285 | 680 ft | 11 kts | 286° |
| 2026-05-07 22:02 | 60.19638 | 11.10219 | 677 ft | 2 kts | 286° |
| 2026-05-07 22:02 | 60.19640 | 11.10203 | 678 ft | 0 kts | 286° |